sensor_id;sensor_type;location;lat;lon;timestamp;P1;durP1;ratioP1;P2;durP2;ratioP2
20042;SDS011;10182;52.896;6.496;2023-07-29T00:02:14;11.47;;;10.37;;
20042;SDS011;10182;52.896;6.496;2023-07-29T00:07:16;15.63;;;10.07;;
20042;SDS011;10182;52.896;6.496;2023-07-29T00:12:19;11.67;;;10.30;;
20042;SDS011;10182;52.896;6.496;2023-07-29T00:17:21;12.53;;;11.33;;
20042;SDS011;10182;52.896;6.496;2023-07-29T00:22:22;12.07;;;10.87;;
20042;SDS011;10182;52.896;6.496;2023-07-29T00:27:25;12.37;;;11.03;;
20042;SDS011;10182;52.896;6.496;2023-07-29T00:32:29;12.07;;;10.87;;
20042;SDS011;10182;52.896;6.496;2023-07-29T00:37:31;12.67;;;11.13;;
20042;SDS011;10182;52.896;6.496;2023-07-29T00:42:34;12.53;;;11.17;;
20042;SDS011;10182;52.896;6.496;2023-07-29T00:47:36;12.53;;;10.90;;
20042;SDS011;10182;52.896;6.496;2023-07-29T00:52:38;13.80;;;10.77;;
20042;SDS011;10182;52.896;6.496;2023-07-29T00:57:41;11.40;;;10.20;;
20042;SDS011;10182;52.896;6.496;2023-07-29T01:02:48;10.93;;;9.83;;
20042;SDS011;10182;52.896;6.496;2023-07-29T01:07:51;10.70;;;9.60;;
20042;SDS011;10182;52.896;6.496;2023-07-29T01:13:04;10.03;;;9.03;;
20042;SDS011;10182;52.896;6.496;2023-07-29T01:18:23;11.60;;;10.47;;
20042;SDS011;10182;52.896;6.496;2023-07-29T01:23:30;10.93;;;9.63;;
20042;SDS011;10182;52.896;6.496;2023-07-29T01:28:32;11.53;;;10.40;;
20042;SDS011;10182;52.896;6.496;2023-07-29T01:33:35;12.53;;;10.40;;
20042;SDS011;10182;52.896;6.496;2023-07-29T01:38:42;11.97;;;10.77;;
20042;SDS011;10182;52.896;6.496;2023-07-29T01:43:45;13.07;;;11.17;;
20042;SDS011;10182;52.896;6.496;2023-07-29T01:48:48;11.67;;;10.47;;
20042;SDS011;10182;52.896;6.496;2023-07-29T01:53:51;14.97;;;11.37;;
20042;SDS011;10182;52.896;6.496;2023-07-29T01:58:52;13.20;;;11.80;;
20042;SDS011;10182;52.896;6.496;2023-07-29T02:03:54;12.13;;;10.73;;
20042;SDS011;10182;52.896;6.496;2023-07-29T02:08:57;12.70;;;10.80;;
20042;SDS011;10182;52.896;6.496;2023-07-29T02:13:59;11.90;;;10.63;;
20042;SDS011;10182;52.896;6.496;2023-07-29T02:19:00;11.77;;;10.40;;
20042;SDS011;10182;52.896;6.496;2023-07-29T02:24:04;14.67;;;11.30;;
20042;SDS011;10182;52.896;6.496;2023-07-29T02:29:06;12.90;;;10.17;;
20042;SDS011;10182;52.896;6.496;2023-07-29T02:34:08;11.13;;;9.97;;
20042;SDS011;10182;52.896;6.496;2023-07-29T02:39:11;13.43;;;10.27;;
20042;SDS011;10182;52.896;6.496;2023-07-29T02:44:13;11.80;;;9.80;;
20042;SDS011;10182;52.896;6.496;2023-07-29T02:49:14;11.43;;;10.17;;
20042;SDS011;10182;52.896;6.496;2023-07-29T02:54:17;13.27;;;9.70;;
20042;SDS011;10182;52.896;6.496;2023-07-29T02:59:19;10.00;;;9.00;;
20042;SDS011;10182;52.896;6.496;2023-07-29T03:04:21;10.43;;;8.10;;
20042;SDS011;10182;52.896;6.496;2023-07-29T03:09:24;10.23;;;8.30;;
20042;SDS011;10182;52.896;6.496;2023-07-29T03:14:26;10.23;;;8.70;;
20042;SDS011;10182;52.896;6.496;2023-07-29T03:19:28;8.50;;;7.70;;
20042;SDS011;10182;52.896;6.496;2023-07-29T03:24:31;11.47;;;8.83;;
20042;SDS011;10182;52.896;6.496;2023-07-29T03:29:33;8.57;;;7.67;;
20042;SDS011;10182;52.896;6.496;2023-07-29T03:34:35;8.20;;;7.40;;
20042;SDS011;10182;52.896;6.496;2023-07-29T03:39:38;10.77;;;8.73;;
20042;SDS011;10182;52.896;6.496;2023-07-29T03:44:39;10.23;;;8.07;;
20042;SDS011;10182;52.896;6.496;2023-07-29T03:49:41;8.90;;;8.00;;
20042;SDS011;10182;52.896;6.496;2023-07-29T03:54:44;8.83;;;7.83;;
20042;SDS011;10182;52.896;6.496;2023-07-29T03:59:46;11.57;;;7.90;;
20042;SDS011;10182;52.896;6.496;2023-07-29T04:04:47;11.20;;;7.23;;
20042;SDS011;10182;52.896;6.496;2023-07-29T04:09:50;9.67;;;6.90;;
20042;SDS011;10182;52.896;6.496;2023-07-29T04:14:52;8.20;;;6.93;;
20042;SDS011;10182;52.896;6.496;2023-07-29T04:19:54;9.73;;;6.63;;
20042;SDS011;10182;52.896;6.496;2023-07-29T04:24:57;9.40;;;6.23;;
20042;SDS011;10182;52.896;6.496;2023-07-29T04:29:58;8.20;;;6.63;;
20042;SDS011;10182;52.896;6.496;2023-07-29T04:35:00;8.10;;;6.77;;
20042;SDS011;10182;52.896;6.496;2023-07-29T04:40:04;7.67;;;6.33;;
20042;SDS011;10182;52.896;6.496;2023-07-29T04:45:06;8.80;;;5.50;;
20042;SDS011;10182;52.896;6.496;2023-07-29T04:50:09;9.13;;;5.77;;
20042;SDS011;10182;52.896;6.496;2023-07-29T04:55:12;7.37;;;5.27;;
20042;SDS011;10182;52.896;6.496;2023-07-29T05:00:14;6.00;;;5.40;;
20042;SDS011;10182;52.896;6.496;2023-07-29T05:05:15;5.97;;;4.47;;
20042;SDS011;10182;52.896;6.496;2023-07-29T05:10:18;6.73;;;4.90;;
20042;SDS011;10182;52.896;6.496;2023-07-29T05:15:20;5.33;;;4.10;;
20042;SDS011;10182;52.896;6.496;2023-07-29T05:20:22;4.73;;;4.00;;
20042;SDS011;10182;52.896;6.496;2023-07-29T05:25:25;5.57;;;4.40;;
20042;SDS011;10182;52.896;6.496;2023-07-29T05:30:27;7.00;;;4.23;;
20042;SDS011;10182;52.896;6.496;2023-07-29T05:35:31;6.27;;;4.40;;
20042;SDS011;10182;52.896;6.496;2023-07-29T05:40:34;4.17;;;3.77;;
20042;SDS011;10182;52.896;6.496;2023-07-29T05:45:35;4.30;;;3.90;;
20042;SDS011;10182;52.896;6.496;2023-07-29T05:50:37;5.80;;;4.20;;
20042;SDS011;10182;52.896;6.496;2023-07-29T05:55:40;6.97;;;4.53;;
20042;SDS011;10182;52.896;6.496;2023-07-29T06:00:42;6.07;;;4.80;;
20042;SDS011;10182;52.896;6.496;2023-07-29T06:05:43;7.53;;;4.67;;
20042;SDS011;10182;52.896;6.496;2023-07-29T06:10:46;8.30;;;5.40;;
20042;SDS011;10182;52.896;6.496;2023-07-29T06:15:48;7.17;;;5.60;;
20042;SDS011;10182;52.896;6.496;2023-07-29T06:20:50;11.30;;;5.77;;
20042;SDS011;10182;52.896;6.496;2023-07-29T06:25:53;7.27;;;5.40;;
20042;SDS011;10182;52.896;6.496;2023-07-29T06:30:55;10.37;;;5.70;;
20042;SDS011;10182;52.896;6.496;2023-07-29T06:35:56;6.77;;;5.80;;
20042;SDS011;10182;52.896;6.496;2023-07-29T06:40:59;8.30;;;5.57;;
20042;SDS011;10182;52.896;6.496;2023-07-29T06:46:01;9.27;;;5.93;;
20042;SDS011;10182;52.896;6.496;2023-07-29T06:51:03;9.83;;;5.80;;
20042;SDS011;10182;52.896;6.496;2023-07-29T06:56:06;10.07;;;6.37;;
20042;SDS011;10182;52.896;6.496;2023-07-29T07:01:08;11.07;;;6.87;;
20042;SDS011;10182;52.896;6.496;2023-07-29T07:06:09;11.80;;;7.00;;
20042;SDS011;10182;52.896;6.496;2023-07-29T07:11:12;9.43;;;7.13;;
20042;SDS011;10182;52.896;6.496;2023-07-29T07:16:14;9.70;;;7.77;;
20042;SDS011;10182;52.896;6.496;2023-07-29T07:21:16;12.63;;;7.07;;
20042;SDS011;10182;52.896;6.496;2023-07-29T07:26:19;13.17;;;8.00;;
20042;SDS011;10182;52.896;6.496;2023-07-29T07:31:21;8.87;;;6.53;;
20042;SDS011;10182;52.896;6.496;2023-07-29T07:36:23;9.33;;;6.47;;
20042;SDS011;10182;52.896;6.496;2023-07-29T07:41:26;8.20;;;6.60;;
20042;SDS011;10182;52.896;6.496;2023-07-29T07:46:28;8.47;;;6.87;;
20042;SDS011;10182;52.896;6.496;2023-07-29T07:51:30;10.17;;;5.77;;
20042;SDS011;10182;52.896;6.496;2023-07-29T07:56:33;9.23;;;6.63;;
20042;SDS011;10182;52.896;6.496;2023-07-29T08:01:34;9.20;;;6.17;;
20042;SDS011;10182;52.896;6.496;2023-07-29T08:06:36;8.97;;;6.00;;
20042;SDS011;10182;52.896;6.496;2023-07-29T08:11:39;9.10;;;6.10;;
20042;SDS011;10182;52.896;6.496;2023-07-29T08:16:41;7.43;;;5.70;;
20042;SDS011;10182;52.896;6.496;2023-07-29T08:21:43;8.50;;;5.73;;
20042;SDS011;10182;52.896;6.496;2023-07-29T08:26:46;13.43;;;5.63;;
20042;SDS011;10182;52.896;6.496;2023-07-29T08:31:48;6.73;;;4.03;;
20042;SDS011;10182;52.896;6.496;2023-07-29T08:36:51;6.83;;;4.80;;
20042;SDS011;10182;52.896;6.496;2023-07-29T08:41:56;8.17;;;4.20;;
20042;SDS011;10182;52.896;6.496;2023-07-29T08:47:02;5.80;;;3.93;;
20042;SDS011;10182;52.896;6.496;2023-07-29T08:52:04;5.93;;;4.27;;
20042;SDS011;10182;52.896;6.496;2023-07-29T08:57:09;10.00;;;5.00;;
20042;SDS011;10182;52.896;6.496;2023-07-29T09:02:11;6.97;;;4.13;;
20042;SDS011;10182;52.896;6.496;2023-07-29T09:07:13;5.33;;;4.20;;
20042;SDS011;10182;52.896;6.496;2023-07-29T09:12:16;6.33;;;3.30;;
20042;SDS011;10182;52.896;6.496;2023-07-29T09:17:18;4.77;;;3.40;;
20042;SDS011;10182;52.896;6.496;2023-07-29T09:22:22;7.80;;;4.20;;
20042;SDS011;10182;52.896;6.496;2023-07-29T09:27:25;5.47;;;4.20;;
20042;SDS011;10182;52.896;6.496;2023-07-29T09:32:27;4.97;;;3.30;;
20042;SDS011;10182;52.896;6.496;2023-07-29T09:37:29;6.03;;;2.97;;
20042;SDS011;10182;52.896;6.496;2023-07-29T09:42:32;7.70;;;2.70;;
20042;SDS011;10182;52.896;6.496;2023-07-29T09:47:34;5.93;;;2.80;;
20042;SDS011;10182;52.896;6.496;2023-07-29T09:52:36;8.57;;;2.90;;
20042;SDS011;10182;52.896;6.496;2023-07-29T09:57:39;4.77;;;2.90;;
20042;SDS011;10182;52.896;6.496;2023-07-29T10:02:42;5.87;;;2.40;;
20042;SDS011;10182;52.896;6.496;2023-07-29T10:07:44;8.03;;;2.33;;
20042;SDS011;10182;52.896;6.496;2023-07-29T10:12:49;4.33;;;2.47;;
20042;SDS011;10182;52.896;6.496;2023-07-29T10:17:51;6.90;;;2.33;;
20042;SDS011;10182;52.896;6.496;2023-07-29T10:22:53;4.27;;;2.60;;
20042;SDS011;10182;52.896;6.496;2023-07-29T10:28:04;5.43;;;2.77;;
20042;SDS011;10182;52.896;6.496;2023-07-29T10:33:06;5.20;;;2.10;;
20042;SDS011;10182;52.896;6.496;2023-07-29T10:38:10;9.57;;;4.30;;
20042;SDS011;10182;52.896;6.496;2023-07-29T10:43:18;6.03;;;3.80;;
20042;SDS011;10182;52.896;6.496;2023-07-29T10:48:39;5.23;;;3.73;;
20042;SDS011;10182;52.896;6.496;2023-07-29T10:53:42;5.20;;;2.27;;
20042;SDS011;10182;52.896;6.496;2023-07-29T10:58:45;6.90;;;2.87;;
20042;SDS011;10182;52.896;6.496;2023-07-29T11:04:00;5.33;;;3.13;;
20042;SDS011;10182;52.896;6.496;2023-07-29T11:09:05;4.40;;;3.30;;
20042;SDS011;10182;52.896;6.496;2023-07-29T11:14:42;5.37;;;3.90;;
20042;SDS011;10182;52.896;6.496;2023-07-29T11:19:44;5.73;;;5.23;;
20042;SDS011;10182;52.896;6.496;2023-07-29T11:24:47;6.13;;;4.90;;
20042;SDS011;10182;52.896;6.496;2023-07-29T11:29:50;10.03;;;4.40;;
20042;SDS011;10182;52.896;6.496;2023-07-29T11:35:00;6.00;;;3.93;;
20042;SDS011;10182;52.896;6.496;2023-07-29T11:40:03;6.13;;;3.40;;
20042;SDS011;10182;52.896;6.496;2023-07-29T11:45:15;6.77;;;3.73;;
20042;SDS011;10182;52.896;6.496;2023-07-29T11:50:17;8.73;;;3.60;;
20042;SDS011;10182;52.896;6.496;2023-07-29T11:55:18;5.33;;;3.13;;
20042;SDS011;10182;52.896;6.496;2023-07-29T12:00:22;7.77;;;3.20;;
20042;SDS011;10182;52.896;6.496;2023-07-29T12:05:24;5.83;;;3.20;;
20042;SDS011;10182;52.896;6.496;2023-07-29T12:10:26;6.83;;;2.77;;
20042;SDS011;10182;52.896;6.496;2023-07-29T12:15:29;6.83;;;3.00;;
20042;SDS011;10182;52.896;6.496;2023-07-29T12:20:31;5.00;;;2.90;;
20042;SDS011;10182;52.896;6.496;2023-07-29T12:25:33;5.50;;;3.00;;
20042;SDS011;10182;52.896;6.496;2023-07-29T12:30:42;7.23;;;2.70;;
20042;SDS011;10182;52.896;6.496;2023-07-29T12:35:44;4.93;;;2.87;;
20042;SDS011;10182;52.896;6.496;2023-07-29T12:40:46;5.70;;;2.60;;
20042;SDS011;10182;52.896;6.496;2023-07-29T12:45:50;3.27;;;2.20;;
20042;SDS011;10182;52.896;6.496;2023-07-29T12:50:52;6.07;;;2.00;;
20042;SDS011;10182;52.896;6.496;2023-07-29T12:55:53;3.20;;;2.23;;
20042;SDS011;10182;52.896;6.496;2023-07-29T13:00:56;3.53;;;2.30;;
20042;SDS011;10182;52.896;6.496;2023-07-29T13:05:58;4.13;;;2.17;;
20042;SDS011;10182;52.896;6.496;2023-07-29T13:11:00;2.83;;;1.87;;
20042;SDS011;10182;52.896;6.496;2023-07-29T13:16:03;3.20;;;1.83;;
20042;SDS011;10182;52.896;6.496;2023-07-29T13:21:06;5.17;;;1.67;;
20042;SDS011;10182;52.896;6.496;2023-07-29T13:26:07;3.03;;;1.60;;
20042;SDS011;10182;52.896;6.496;2023-07-29T13:31:10;1.10;;;0.90;;
20042;SDS011;10182;52.896;6.496;2023-07-29T13:36:13;1.23;;;1.03;;
20042;SDS011;10182;52.896;6.496;2023-07-29T13:41:14;3.37;;;1.43;;
20042;SDS011;10182;52.896;6.496;2023-07-29T13:46:17;3.00;;;1.20;;
20042;SDS011;10182;52.896;6.496;2023-07-29T13:51:21;1.93;;;1.00;;
20042;SDS011;10182;52.896;6.496;2023-07-29T13:56:22;2.67;;;0.90;;
20042;SDS011;10182;52.896;6.496;2023-07-29T14:01:26;2.63;;;1.00;;
20042;SDS011;10182;52.896;6.496;2023-07-29T14:06:28;2.60;;;1.17;;
20042;SDS011;10182;52.896;6.496;2023-07-29T14:11:30;2.63;;;1.40;;
20042;SDS011;10182;52.896;6.496;2023-07-29T14:16:33;3.43;;;1.47;;
20042;SDS011;10182;52.896;6.496;2023-07-29T14:21:35;5.47;;;2.13;;
20042;SDS011;10182;52.896;6.496;2023-07-29T14:26:37;6.10;;;1.70;;
20042;SDS011;10182;52.896;6.496;2023-07-29T14:31:40;2.83;;;1.60;;
20042;SDS011;10182;52.896;6.496;2023-07-29T14:36:41;2.20;;;2.00;;
20042;SDS011;10182;52.896;6.496;2023-07-29T14:41:43;1.93;;;1.30;;
20042;SDS011;10182;52.896;6.496;2023-07-29T14:46:46;2.40;;;1.57;;
20042;SDS011;10182;52.896;6.496;2023-07-29T14:51:48;3.23;;;2.07;;
20042;SDS011;10182;52.896;6.496;2023-07-29T14:56:50;3.90;;;2.00;;
20042;SDS011;10182;52.896;6.496;2023-07-29T15:01:53;3.20;;;1.90;;
20042;SDS011;10182;52.896;6.496;2023-07-29T15:06:54;3.87;;;1.47;;
20042;SDS011;10182;52.896;6.496;2023-07-29T15:11:57;1.43;;;1.10;;
20042;SDS011;10182;52.896;6.496;2023-07-29T15:17:01;3.50;;;1.30;;
20042;SDS011;10182;52.896;6.496;2023-07-29T15:22:02;3.83;;;1.20;;
20042;SDS011;10182;52.896;6.496;2023-07-29T15:27:06;3.10;;;1.10;;
20042;SDS011;10182;52.896;6.496;2023-07-29T15:32:09;3.37;;;1.37;;
20042;SDS011;10182;52.896;6.496;2023-07-29T15:37:11;2.40;;;1.30;;
20042;SDS011;10182;52.896;6.496;2023-07-29T15:42:12;2.53;;;0.90;;
20042;SDS011;10182;52.896;6.496;2023-07-29T15:47:15;2.20;;;1.00;;
20042;SDS011;10182;52.896;6.496;2023-07-29T15:52:18;3.77;;;1.20;;
20042;SDS011;10182;52.896;6.496;2023-07-29T15:57:20;2.27;;;0.80;;
20042;SDS011;10182;52.896;6.496;2023-07-29T16:02:23;2.10;;;0.80;;
20042;SDS011;10182;52.896;6.496;2023-07-29T16:07:25;2.77;;;1.10;;
20042;SDS011;10182;52.896;6.496;2023-07-29T16:12:27;3.17;;;0.80;;
20042;SDS011;10182;52.896;6.496;2023-07-29T16:17:30;1.07;;;0.73;;
20042;SDS011;10182;52.896;6.496;2023-07-29T16:22:32;3.60;;;0.87;;
20042;SDS011;10182;52.896;6.496;2023-07-29T16:27:34;0.93;;;0.70;;
20042;SDS011;10182;52.896;6.496;2023-07-29T16:32:37;1.27;;;0.83;;
20042;SDS011;10182;52.896;6.496;2023-07-29T16:37:39;1.90;;;1.00;;
20042;SDS011;10182;52.896;6.496;2023-07-29T16:42:40;2.87;;;1.00;;
20042;SDS011;10182;52.896;6.496;2023-07-29T16:47:44;1.40;;;1.03;;
20042;SDS011;10182;52.896;6.496;2023-07-29T16:52:46;1.07;;;0.77;;
20042;SDS011;10182;52.896;6.496;2023-07-29T16:57:49;1.83;;;1.23;;
20042;SDS011;10182;52.896;6.496;2023-07-29T17:02:52;2.63;;;1.30;;
20042;SDS011;10182;52.896;6.496;2023-07-29T17:07:53;1.97;;;1.10;;
20042;SDS011;10182;52.896;6.496;2023-07-29T17:12:55;2.63;;;1.07;;
20042;SDS011;10182;52.896;6.496;2023-07-29T17:17:58;2.07;;;1.03;;
20042;SDS011;10182;52.896;6.496;2023-07-29T17:23:00;2.27;;;1.13;;
20042;SDS011;10182;52.896;6.496;2023-07-29T17:28:01;3.23;;;0.90;;
20042;SDS011;10182;52.896;6.496;2023-07-29T17:33:05;3.23;;;1.40;;
20042;SDS011;10182;52.896;6.496;2023-07-29T17:38:07;2.27;;;1.27;;
20042;SDS011;10182;52.896;6.496;2023-07-29T17:43:09;1.53;;;1.30;;
20042;SDS011;10182;52.896;6.496;2023-07-29T17:48:12;1.70;;;1.20;;
20042;SDS011;10182;52.896;6.496;2023-07-29T17:53:14;2.70;;;1.40;;
20042;SDS011;10182;52.896;6.496;2023-07-29T17:58:16;2.53;;;1.13;;
20042;SDS011;10182;52.896;6.496;2023-07-29T18:03:19;3.53;;;1.23;;
20042;SDS011;10182;52.896;6.496;2023-07-29T18:08:20;1.93;;;1.43;;
20042;SDS011;10182;52.896;6.496;2023-07-29T18:13:22;3.17;;;1.33;;
20042;SDS011;10182;52.896;6.496;2023-07-29T18:18:26;4.87;;;1.83;;
20042;SDS011;10182;52.896;6.496;2023-07-29T18:23:29;2.60;;;1.50;;
20042;SDS011;10182;52.896;6.496;2023-07-29T18:28:30;4.40;;;1.83;;
20042;SDS011;10182;52.896;6.496;2023-07-29T18:33:33;2.60;;;1.57;;
20042;SDS011;10182;52.896;6.496;2023-07-29T18:38:35;3.17;;;2.10;;
20042;SDS011;10182;52.896;6.496;2023-07-29T18:43:37;3.43;;;1.87;;
20042;SDS011;10182;52.896;6.496;2023-07-29T18:48:40;5.47;;;2.00;;
20042;SDS011;10182;52.896;6.496;2023-07-29T18:53:41;3.40;;;2.20;;
20042;SDS011;10182;52.896;6.496;2023-07-29T18:58:43;5.73;;;2.00;;
20042;SDS011;10182;52.896;6.496;2023-07-29T19:03:46;4.50;;;2.10;;
20042;SDS011;10182;52.896;6.496;2023-07-29T19:08:48;3.80;;;2.43;;
20042;SDS011;10182;52.896;6.496;2023-07-29T19:13:50;4.20;;;2.20;;
20042;SDS011;10182;52.896;6.496;2023-07-29T19:18:53;3.50;;;2.10;;
20042;SDS011;10182;52.896;6.496;2023-07-29T19:23:56;2.97;;;2.47;;
20042;SDS011;10182;52.896;6.496;2023-07-29T19:28:58;2.57;;;2.37;;
20042;SDS011;10182;52.896;6.496;2023-07-29T19:34:01;3.70;;;2.57;;
20042;SDS011;10182;52.896;6.496;2023-07-29T19:39:03;4.77;;;4.03;;
20042;SDS011;10182;52.896;6.496;2023-07-29T19:44:05;5.77;;;3.87;;
20042;SDS011;10182;52.896;6.496;2023-07-29T19:49:08;5.63;;;3.80;;
20042;SDS011;10182;52.896;6.496;2023-07-29T19:54:10;5.10;;;4.37;;
20042;SDS011;10182;52.896;6.496;2023-07-29T19:59:12;7.43;;;4.20;;
20042;SDS011;10182;52.896;6.496;2023-07-29T20:04:15;8.93;;;5.07;;
20042;SDS011;10182;52.896;6.496;2023-07-29T20:09:17;12.73;;;6.03;;
20042;SDS011;10182;52.896;6.496;2023-07-29T20:14:18;8.53;;;4.97;;
20042;SDS011;10182;52.896;6.496;2023-07-29T20:19:21;7.83;;;4.20;;
20042;SDS011;10182;52.896;6.496;2023-07-29T20:24:23;7.87;;;4.50;;
20042;SDS011;10182;52.896;6.496;2023-07-29T20:29:25;11.60;;;5.80;;
20042;SDS011;10182;52.896;6.496;2023-07-29T20:34:28;9.17;;;5.40;;
20042;SDS011;10182;52.896;6.496;2023-07-29T20:39:31;14.23;;;6.13;;
20042;SDS011;10182;52.896;6.496;2023-07-29T20:44:32;16.73;;;5.57;;
20042;SDS011;10182;52.896;6.496;2023-07-29T20:49:35;14.30;;;6.43;;
20042;SDS011;10182;52.896;6.496;2023-07-29T20:54:37;13.40;;;7.17;;
20042;SDS011;10182;52.896;6.496;2023-07-29T20:59:39;10.27;;;7.80;;
20042;SDS011;10182;52.896;6.496;2023-07-29T21:04:42;8.80;;;5.83;;
20042;SDS011;10182;52.896;6.496;2023-07-29T21:09:44;10.37;;;5.93;;
20042;SDS011;10182;52.896;6.496;2023-07-29T21:14:46;6.33;;;4.53;;
20042;SDS011;10182;52.896;6.496;2023-07-29T21:19:49;7.10;;;5.00;;
20042;SDS011;10182;52.896;6.496;2023-07-29T21:24:51;7.73;;;4.97;;
20042;SDS011;10182;52.896;6.496;2023-07-29T21:29:53;9.73;;;4.50;;
20042;SDS011;10182;52.896;6.496;2023-07-29T21:34:56;11.93;;;6.20;;
20042;SDS011;10182;52.896;6.496;2023-07-29T21:39:58;9.87;;;5.63;;
20042;SDS011;10182;52.896;6.496;2023-07-29T21:45:00;6.63;;;4.57;;
20042;SDS011;10182;52.896;6.496;2023-07-29T21:50:04;8.03;;;4.53;;
20042;SDS011;10182;52.896;6.496;2023-07-29T21:55:07;10.83;;;4.50;;
20042;SDS011;10182;52.896;6.496;2023-07-29T22:00:09;10.43;;;4.87;;
20042;SDS011;10182;52.896;6.496;2023-07-29T22:05:12;9.77;;;4.93;;
20042;SDS011;10182;52.896;6.496;2023-07-29T22:10:14;7.53;;;5.07;;
20042;SDS011;10182;52.896;6.496;2023-07-29T22:15:16;9.80;;;5.40;;
20042;SDS011;10182;52.896;6.496;2023-07-29T22:20:19;10.77;;;4.83;;
20042;SDS011;10182;52.896;6.496;2023-07-29T22:25:21;9.90;;;4.67;;
20042;SDS011;10182;52.896;6.496;2023-07-29T22:30:23;8.53;;;4.20;;
20042;SDS011;10182;52.896;6.496;2023-07-29T22:35:26;11.73;;;5.17;;
20042;SDS011;10182;52.896;6.496;2023-07-29T22:40:28;12.73;;;5.33;;
20042;SDS011;10182;52.896;6.496;2023-07-29T22:45:30;12.30;;;5.70;;
20042;SDS011;10182;52.896;6.496;2023-07-29T22:50:33;14.33;;;7.10;;
20042;SDS011;10182;52.896;6.496;2023-07-29T22:55:35;9.63;;;6.10;;
20042;SDS011;10182;52.896;6.496;2023-07-29T23:00:36;13.63;;;7.00;;
20042;SDS011;10182;52.896;6.496;2023-07-29T23:05:39;13.57;;;6.87;;
20042;SDS011;10182;52.896;6.496;2023-07-29T23:10:41;12.73;;;6.00;;
20042;SDS011;10182;52.896;6.496;2023-07-29T23:15:43;12.17;;;6.53;;
20042;SDS011;10182;52.896;6.496;2023-07-29T23:20:46;8.27;;;5.77;;
20042;SDS011;10182;52.896;6.496;2023-07-29T23:25:50;11.10;;;6.30;;
20042;SDS011;10182;52.896;6.496;2023-07-29T23:30:54;9.60;;;5.20;;
20042;SDS011;10182;52.896;6.496;2023-07-29T23:36:01;14.73;;;5.97;;
20042;SDS011;10182;52.896;6.496;2023-07-29T23:41:03;10.63;;;5.93;;
20042;SDS011;10182;52.896;6.496;2023-07-29T23:46:07;13.03;;;6.03;;
20042;SDS011;10182;52.896;6.496;2023-07-29T23:51:10;12.00;;;6.67;;
20042;SDS011;10182;52.896;6.496;2023-07-29T23:56:12;14.23;;;6.67;;
